Time;durP1;ratioP1;P1;durP2;ratioP2;P2;SDS_P1;SDS_P2;PMS_P1;PMS_P2;Temp;Humidity;BMP_temperature;BMP_pressure;BME280_temperature;BME280_humidity;BME280_pressure;Samples;Min_cycle;Max_cycle;Signal;HPM_P1;HPM_P2
2024/01/23 00:00:45;;;;;;;0.20;0.20;;;;;;;;;;6246798;28;20379;-81
2024/01/23 00:03:45;;;;;;;0.20;0.20;;;;;;;;;;6246883;28;20052;-80
2024/01/23 00:06:45;;;;;;;0.20;0.20;;;;;;;;;;6246519;28;20028;-80
2024/01/23 00:09:45;;;;;;;0.20;0.20;;;;;;;;;;6246528;28;20095;-79
2024/01/23 00:12:46;;;;;;;0.20;0.20;;;;;;;;;;6246655;28;20101;-81
2024/01/23 00:15:46;;;;;;;0.20;0.20;;;;;;;;;;6246753;28;20037;-81
2024/01/23 00:18:47;;;;;;;0.20;0.20;;;;;;;;;;6258532;28;20032;-81
2024/01/23 00:21:47;;;;;;;0.20;0.20;;;;;;;;;;6228548;28;20028;-81
2024/01/23 00:24:48;;;;;;;0.20;0.20;;;;;;;;;;6228690;28;20439;-82
2024/01/23 00:27:48;;;;;;;0.20;0.20;;;;;;;;;;6246463;28;20526;-84
2024/01/23 00:30:48;;;;;;;0.20;0.20;;;;;;;;;;6246485;28;20059;-83
2024/01/23 00:33:48;;;;;;;0.20;0.20;;;;;;;;;;6216296;28;20046;-84
2024/01/23 00:36:49;;;;;;;0.20;0.20;;;;;;;;;;6240296;28;20036;-84
2024/01/23 00:39:50;;;;;;;0.20;0.20;;;;;;;;;;6236060;28;20026;-81
2024/01/23 00:42:51;;;;;;;0.20;0.20;;;;;;;;;;6255534;28;20013;-83
2024/01/23 00:45:51;;;;;;;0.20;0.20;;;;;;;;;;6228007;28;20025;-79
2024/01/23 00:48:51;;;;;;;0.20;0.20;;;;;;;;;;6245778;28;20049;-79
2024/01/23 00:51:51;;;;;;;0.20;0.20;;;;;;;;;;6246153;28;20131;-79
2024/01/23 00:54:52;;;;;;;0.20;0.20;;;;;;;;;;6250534;28;20487;-79
2024/01/23 00:57:52;;;;;;;0.20;0.20;;;;;;;;;;6245541;28;20076;-79
2024/01/23 01:00:53;;;;;;;0.20;0.20;;;;;;;;;;6245088;28;20028;-78
2024/01/23 01:03:53;;;;;;;0.20;0.20;;;;;;;;;;6245440;28;20203;-78
2024/01/23 01:06:53;;;;;;;0.20;0.20;;;;;;;;;;6239422;28;20036;-79
2024/01/23 01:09:53;;;;;;;0.20;0.20;;;;;;;;;;6227199;28;20087;-78
2024/01/23 01:12:54;;;;;;;0.20;0.20;;;;;;;;;;6245406;28;20413;-78
2024/01/23 01:15:54;;;;;;;0.20;0.20;;;;;;;;;;6246717;28;20025;-78
2024/01/23 01:18:57;;;;;;;0.20;0.20;;;;;;;;;;6234696;28;20025;-80
2024/01/23 01:21:57;;;;;;;0.20;0.20;;;;;;;;;;6227173;28;20117;-78
2024/01/23 01:24:57;;;;;;;0.20;0.20;;;;;;;;;;6227097;28;20044;-77
2024/01/23 01:27:59;;;;;;;0.20;0.20;;;;;;;;;;6245446;28;20387;-77
2024/01/23 01:30:59;;;;;;;0.20;0.20;;;;;;;;;;6244836;28;20040;-78
2024/01/23 01:34:00;;;;;;;0.20;0.20;;;;;;;;;;6244689;28;20025;-77
2024/01/23 01:37:00;;;;;;;0.20;0.20;;;;;;;;;;6242189;28;20029;-82
2024/01/23 01:40:00;;;;;;;0.20;0.20;;;;;;;;;;6227254;28;20099;-83
2024/01/23 01:43:00;;;;;;;0.20;0.20;;;;;;;;;;6227214;28;20025;-84
2024/01/23 01:46:04;;;;;;;0.20;0.20;;;;;;;;;;6226475;28;20030;-83
2024/01/23 01:49:04;;;;;;;0.20;0.20;;;;;;;;;;6236361;28;20037;-82
2024/01/23 01:52:04;;;;;;;0.20;0.20;;;;;;;;;;6244616;28;20104;-82
2024/01/23 01:55:05;;;;;;;0.20;0.20;;;;;;;;;;6244347;28;20021;-80
2024/01/23 01:58:06;;;;;;;0.20;0.20;;;;;;;;;;6231864;28;20057;-81
2024/01/23 02:01:06;;;;;;;0.20;0.20;;;;;;;;;;6244260;28;20036;-81
2024/01/23 02:04:07;;;;;;;0.20;0.20;;;;;;;;;;6244426;28;20550;-81
2024/01/23 02:07:07;;;;;;;0.20;0.20;;;;;;;;;;6225364;28;20037;-81
2024/01/23 02:10:07;;;;;;;0.20;0.20;;;;;;;;;;6244390;28;20060;-81
2024/01/23 02:13:08;;;;;;;0.20;0.20;;;;;;;;;;6243950;28;20025;-80
2024/01/23 02:16:11;;;;;;;0.20;0.20;;;;;;;;;;6247624;28;20067;-86
2024/01/23 02:19:13;;;;;;;0.20;0.20;;;;;;;;;;6252465;28;20272;-81
2024/01/23 02:22:13;;;;;;;0.20;0.20;;;;;;;;;;6244238;28;20027;-80
2024/01/23 02:25:14;;;;;;;0.20;0.20;;;;;;;;;;6243908;28;20022;-81
2024/01/23 02:28:15;;;;;;;0.20;0.20;;;;;;;;;;6243783;28;20025;-81
2024/01/23 02:31:17;;;;;;;0.20;0.20;;;;;;;;;;6240955;28;20137;-85
2024/01/23 02:34:17;;;;;;;0.20;0.20;;;;;;;;;;6237995;28;20026;-82
2024/01/23 02:37:17;;;;;;;0.20;0.20;;;;;;;;;;6251339;28;20024;-81
2024/01/23 02:40:17;;;;;;;0.20;0.20;;;;;;;;;;6241062;28;20032;-80
2024/01/23 02:43:19;;;;;;;0.20;0.20;;;;;;;;;;6243311;28;20014;-81
2024/01/23 02:46:19;;;;;;;0.20;0.20;;;;;;;;;;6224239;28;20025;-80
2024/01/23 02:49:19;;;;;;;0.20;0.20;;;;;;;;;;6243434;28;20053;-80
2024/01/23 02:52:20;;;;;;;0.20;0.20;;;;;;;;;;6225229;28;20057;-80
2024/01/23 02:55:20;;;;;;;0.20;0.20;;;;;;;;;;6225233;28;20067;-79
2024/01/23 02:58:21;;;;;;;0.20;0.20;;;;;;;;;;6221144;28;20029;-80
2024/01/23 03:01:21;;;;;;;0.20;0.20;;;;;;;;;;6221738;28;20061;-79
2024/01/23 03:04:21;;;;;;;0.20;0.20;;;;;;;;;;6239986;28;20423;-79
2024/01/23 03:07:22;;;;;;;0.20;0.20;;;;;;;;;;6230231;28;20522;-80
2024/01/23 03:10:22;;;;;;;0.20;0.20;;;;;;;;;;6242517;28;20035;-80
2024/01/23 03:13:22;;;;;;;0.20;0.20;;;;;;;;;;6242638;28;20075;-79
2024/01/23 03:16:23;;;;;;;0.20;0.20;;;;;;;;;;6247981;28;20021;-80
2024/01/23 03:19:23;;;;;;;0.20;0.20;;;;;;;;;;6246738;28;20487;-80
2024/01/23 03:22:23;;;;;;;0.20;0.20;;;;;;;;;;6236965;28;20021;-79
2024/01/23 03:25:23;;;;;;;0.20;0.20;;;;;;;;;;6231553;28;20021;-79
2024/01/23 03:28:23;;;;;;;0.20;0.20;;;;;;;;;;6215270;28;20018;-79
2024/01/23 03:31:24;;;;;;;0.20;0.20;;;;;;;;;;6233273;28;20117;-79
2024/01/23 03:34:24;;;;;;;0.20;0.20;;;;;;;;;;6241604;28;20229;-79
2024/01/23 03:37:24;;;;;;;0.20;0.20;;;;;;;;;;6225631;28;20108;-80
2024/01/23 03:40:24;;;;;;;0.20;0.20;;;;;;;;;;6242029;28;20023;-80
2024/01/23 03:43:26;;;;;;;0.20;0.20;;;;;;;;;;6237543;28;20025;-80
2024/01/23 03:46:26;;;;;;;;;;;;;;;;;;6229955;28;20132;-80
2024/01/23 03:49:27;;;;;;;0.22;0.22;;;;;;;;;;6217814;28;20272;-80
2024/01/23 03:52:28;;;;;;;0.20;0.20;;;;;;;;;;6231805;28;20025;-80
2024/01/23 03:55:28;;;;;;;0.20;0.20;;;;;;;;;;6235352;28;20025;-88
2024/01/23 03:58:28;;;;;;;0.20;0.20;;;;;;;;;;6226592;28;20037;-90
2024/01/23 04:01:28;;;;;;;0.20;0.20;;;;;;;;;;6241937;28;20025;-88
2024/01/23 04:04:28;;;;;;;0.20;0.20;;;;;;;;;;6231275;28;20080;-87
2024/01/23 04:07:29;;;;;;;0.20;0.20;;;;;;;;;;6232275;28;20108;-86
2024/01/23 04:10:29;;;;;;;0.20;0.20;;;;;;;;;;6223841;28;20400;-85
2024/01/23 04:13:29;;;;;;;0.20;0.20;;;;;;;;;;6241921;28;20025;-85
2024/01/23 04:16:29;;;;;;;0.20;0.20;;;;;;;;;;6241728;28;20056;-84
2024/01/23 04:19:30;;;;;;;0.20;0.20;;;;;;;;;;6241429;28;20068;-83
2024/01/23 04:22:30;;;;;;;0.20;0.20;;;;;;;;;;6223415;28;20029;-84
2024/01/23 04:25:30;;;;;;;0.20;0.20;;;;;;;;;;6242069;28;20048;-85
2024/01/23 04:28:30;;;;;;;0.20;0.20;;;;;;;;;;6241603;28;20022;-84
2024/01/23 04:31:30;;;;;;;0.20;0.20;;;;;;;;;;6223739;28;20021;-84
2024/01/23 04:34:31;;;;;;;0.20;0.20;;;;;;;;;;6233310;28;20126;-85
2024/01/23 04:37:31;;;;;;;0.20;0.20;;;;;;;;;;6249717;28;20065;-84
2024/01/23 04:40:31;;;;;;;0.20;0.20;;;;;;;;;;6241391;28;20025;-84
2024/01/23 04:43:31;;;;;;;0.20;0.20;;;;;;;;;;6246165;28;20060;-83
2024/01/23 04:46:32;;;;;;;0.20;0.20;;;;;;;;;;6227861;28;20108;-83
2024/01/23 04:49:32;;;;;;;0.20;0.20;;;;;;;;;;6228201;28;20099;-83
2024/01/23 04:52:32;;;;;;;0.20;0.20;;;;;;;;;;6245667;28;20029;-83
2024/01/23 04:55:32;;;;;;;0.20;0.20;;;;;;;;;;6227651;28;20029;-83
2024/01/23 04:58:33;;;;;;;0.20;0.20;;;;;;;;;;6245551;28;20034;-82
2024/01/23 05:01:33;;;;;;;0.20;0.20;;;;;;;;;;6256047;28;20014;-81
2024/01/23 05:04:33;;;;;;;0.20;0.20;;;;;;;;;;6234929;28;20017;-81
2024/01/23 05:07:33;;;;;;;0.20;0.20;;;;;;;;;;6245150;28;20052;-79
2024/01/23 05:10:33;;;;;;;0.20;0.20;;;;;;;;;;6249891;28;20034;-79
2024/01/23 05:13:34;;;;;;;0.20;0.20;;;;;;;;;;6243768;28;20435;-79
2024/01/23 05:16:35;;;;;;;0.20;0.20;;;;;;;;;;6241713;28;20026;-77
2024/01/23 05:19:35;;;;;;;0.20;0.20;;;;;;;;;;6236173;28;20029;-78
2024/01/23 05:22:35;;;;;;;0.20;0.20;;;;;;;;;;6242065;28;20065;-77
2024/01/23 05:25:38;;;;;;;0.20;0.20;;;;;;;;;;6231098;28;20031;-77
2024/01/23 05:28:38;;;;;;;0.20;0.20;;;;;;;;;;6240019;28;20026;-77
2024/01/23 05:31:38;;;;;;;0.20;0.20;;;;;;;;;;6219922;28;20460;-77
2024/01/23 05:34:39;;;;;;;0.20;0.20;;;;;;;;;;6244685;28;20025;-76
2024/01/23 05:37:39;;;;;;;0.20;0.20;;;;;;;;;;6232567;28;20057;-76
2024/01/23 05:40:39;;;;;;;0.20;0.20;;;;;;;;;;6223197;28;20022;-75
2024/01/23 05:43:39;;;;;;;0.20;0.20;;;;;;;;;;6238951;28;20045;-76
2024/01/23 05:46:40;;;;;;;0.20;0.20;;;;;;;;;;6244724;28;20048;-78
2024/01/23 05:49:40;;;;;;;0.20;0.20;;;;;;;;;;6243880;28;20022;-75
2024/01/23 05:52:40;;;;;;;0.20;0.20;;;;;;;;;;6237597;28;20053;-75
2024/01/23 05:55:40;;;;;;;0.20;0.20;;;;;;;;;;6241140;28;20360;-77
2024/01/23 05:58:42;;;;;;;0.20;0.20;;;;;;;;;;6244356;28;20024;-77
2024/01/23 06:01:42;;;;;;;0.20;0.20;;;;;;;;;;6258687;28;20562;-77
2024/01/23 06:04:42;;;;;;;0.20;0.20;;;;;;;;;;6237946;28;20026;-75
2024/01/23 06:07:48;;;;;;;0.20;0.20;;;;;;;;;;6227098;28;20026;-75
2024/01/23 06:11:03;;;;;;;0.20;0.20;;;;;;;;;;6243899;28;20476;-75
2024/01/23 06:14:04;;;;;;;0.20;0.20;;;;;;;;;;6226282;28;20050;-74
2024/01/23 06:17:04;;;;;;;0.20;0.20;;;;;;;;;;6235099;28;20044;-74
2024/01/23 06:20:04;;;;;;;0.20;0.20;;;;;;;;;;6242437;28;20014;-76
2024/01/23 06:23:05;;;;;;;0.20;0.20;;;;;;;;;;6243605;28;20041;-74
2024/01/23 06:26:05;;;;;;;0.20;0.20;;;;;;;;;;6223740;28;20054;-74
2024/01/23 06:29:05;;;;;;;0.20;0.20;;;;;;;;;;6243984;28;20049;-77
2024/01/23 06:32:06;;;;;;;0.20;0.20;;;;;;;;;;6243339;28;20045;-76
2024/01/23 06:35:07;;;;;;;0.20;0.20;;;;;;;;;;6221963;28;20419;-76
2024/01/23 06:38:08;;;;;;;0.20;0.20;;;;;;;;;;6235459;28;20112;-76
2024/01/23 06:41:08;;;;;;;0.20;0.20;;;;;;;;;;6231852;28;20018;-75
2024/01/23 06:44:08;;;;;;;0.30;0.30;;;;;;;;;;6241540;28;20075;-73
2024/01/23 06:47:09;;;;;;;0.20;0.20;;;;;;;;;;6246113;28;20072;-74
2024/01/23 06:50:09;;;;;;;0.20;0.20;;;;;;;;;;6253682;28;20104;-74
2024/01/23 06:53:09;;;;;;;0.20;0.20;;;;;;;;;;6243111;28;20036;-74
2024/01/23 06:56:10;;;;;;;0.23;0.23;;;;;;;;;;6242335;28;20025;-74
2024/01/23 06:59:10;;;;;;;0.20;0.20;;;;;;;;;;6254943;28;20016;-74
2024/01/23 07:02:11;;;;;;;0.20;0.20;;;;;;;;;;6243788;28;20056;-74
2024/01/23 07:05:11;;;;;;;0.20;0.20;;;;;;;;;;6242715;28;20009;-74
2024/01/23 07:08:11;;;;;;;0.20;0.20;;;;;;;;;;6256437;28;20017;-74
2024/01/23 07:11:12;;;;;;;0.20;0.20;;;;;;;;;;6231453;28;20022;-74
2024/01/23 07:14:13;;;;;;;0.20;0.20;;;;;;;;;;6230922;28;20022;-74
2024/01/23 07:17:14;;;;;;;0.20;0.20;;;;;;;;;;6232394;28;20021;-74
2024/01/23 07:20:15;;;;;;;0.20;0.20;;;;;;;;;;6235713;28;20029;-75
2024/01/23 07:23:15;;;;;;;0.20;0.20;;;;;;;;;;6229611;28;20021;-75
2024/01/23 07:26:16;;;;;;;0.20;0.20;;;;;;;;;;6230965;28;20032;-80
2024/01/23 07:29:16;;;;;;;0.20;0.20;;;;;;;;;;6229669;28;20624;-80
2024/01/23 07:32:16;;;;;;;0.20;0.20;;;;;;;;;;6238819;28;20079;-80
2024/01/23 07:35:16;;;;;;;0.20;0.20;;;;;;;;;;6235127;28;20034;-80
2024/01/23 07:38:18;;;;;;;0.20;0.20;;;;;;;;;;6220597;28;20483;-80
2024/01/23 07:41:18;;;;;;;0.20;0.20;;;;;;;;;;6218712;28;20030;-79
2024/01/23 07:44:19;;;;;;;0.20;0.20;;;;;;;;;;6223550;28;20021;-79
2024/01/23 07:47:19;;;;;;;0.27;0.27;;;;;;;;;;6244910;28;20120;-74
2024/01/23 07:50:19;;;;;;;0.20;0.20;;;;;;;;;;6236312;28;20032;-75
2024/01/23 07:53:19;;;;;;;0.20;0.20;;;;;;;;;;6237399;28;20025;-75
2024/01/23 07:56:20;;;;;;;0.20;0.20;;;;;;;;;;6227878;28;20032;-74
2024/01/23 07:59:20;;;;;;;0.20;0.20;;;;;;;;;;6240623;28;20096;-75
2024/01/23 08:02:20;;;;;;;0.20;0.20;;;;;;;;;;6221881;28;20014;-74
2024/01/23 08:05:20;;;;;;;0.20;0.20;;;;;;;;;;6233469;28;20112;-74
2024/01/23 08:08:22;;;;;;;0.20;0.20;;;;;;;;;;6241842;28;20060;-75
2024/01/23 08:11:23;;;;;;;0.20;0.20;;;;;;;;;;6238438;28;20017;-75
2024/01/23 08:14:23;;;;;;;0.20;0.20;;;;;;;;;;6233978;28;20032;-75
2024/01/23 08:17:23;;;;;;;0.20;0.20;;;;;;;;;;6237617;28;20037;-75
2024/01/23 08:20:24;;;;;;;0.20;0.20;;;;;;;;;;6239838;28;20022;-75
2024/01/23 08:23:25;;;;;;;0.20;0.20;;;;;;;;;;6231217;28;20052;-76
2024/01/23 08:26:25;;;;;;;0.20;0.20;;;;;;;;;;6245966;28;20009;-76
2024/01/23 08:29:25;;;;;;;0.20;0.20;;;;;;;;;;6234829;28;20025;-76
2024/01/23 08:32:26;;;;;;;0.20;0.20;;;;;;;;;;6244921;28;20025;-76
2024/01/23 08:35:26;;;;;;;0.20;0.20;;;;;;;;;;6238856;28;20104;-76
2024/01/23 08:38:26;;;;;;;0.20;0.20;;;;;;;;;;6237186;28;20492;-75
2024/01/23 08:41:27;;;;;;;0.20;0.20;;;;;;;;;;6236909;28;20212;-75
2024/01/23 08:44:28;;;;;;;0.20;0.20;;;;;;;;;;6233521;28;20029;-75
2024/01/23 08:47:28;;;;;;;0.20;0.20;;;;;;;;;;6255046;28;20053;-76
2024/01/23 08:50:28;;;;;;;0.20;0.20;;;;;;;;;;6249687;28;20542;-76
2024/01/23 08:53:29;;;;;;;0.20;0.20;;;;;;;;;;6246066;28;20026;-76
2024/01/23 08:56:29;;;;;;;0.20;0.20;;;;;;;;;;6245714;28;20029;-76
2024/01/23 08:59:30;;;;;;;0.20;0.20;;;;;;;;;;6246011;28;20419;-76
2024/01/23 09:02:30;;;;;;;0.20;0.20;;;;;;;;;;6259683;28;20584;-76
2024/01/23 09:05:30;;;;;;;0.20;0.20;;;;;;;;;;6232701;28;20105;-76
2024/01/23 09:08:30;;;;;;;0.20;0.20;;;;;;;;;;6243918;28;20042;-76
2024/01/23 09:11:31;;;;;;;0.20;0.20;;;;;;;;;;6245345;28;20082;-76
2024/01/23 09:14:31;;;;;;;0.20;0.20;;;;;;;;;;6245256;28;20464;-76
2024/01/23 09:17:31;;;;;;;0.20;0.20;;;;;;;;;;6245504;28;20136;-76
2024/01/23 09:20:31;;;;;;;0.20;0.20;;;;;;;;;;6245575;28;20045;-75
2024/01/23 09:23:32;;;;;;;0.20;0.20;;;;;;;;;;6245741;28;20075;-76
2024/01/23 09:26:32;;;;;;;0.20;0.20;;;;;;;;;;6244476;28;20033;-76
2024/01/23 09:29:32;;;;;;;0.20;0.20;;;;;;;;;;6245315;28;20045;-76
2024/01/23 09:32:32;;;;;;;0.20;0.20;;;;;;;;;;6245274;28;20033;-75
2024/01/23 09:35:33;;;;;;;0.20;0.20;;;;;;;;;;6226932;28;20041;-75
2024/01/23 09:38:33;;;;;;;0.20;0.20;;;;;;;;;;6245302;28;20106;-75
2024/01/23 09:41:33;;;;;;;0.10;0.10;;;;;;;;;;6244843;28;20648;-75
2024/01/23 09:44:34;;;;;;;0.20;0.20;;;;;;;;;;6245615;28;20031;-75
2024/01/23 09:47:35;;;;;;;0.20;0.20;;;;;;;;;;6255373;28;20064;-76
2024/01/23 09:50:36;;;;;;;0.20;0.20;;;;;;;;;;6247844;28;20108;-76
2024/01/23 09:53:36;;;;;;;0.20;0.20;;;;;;;;;;6221734;28;20026;-76
2024/01/23 09:56:37;;;;;;;0.13;0.13;;;;;;;;;;6235166;28;20487;-76
2024/01/23 09:59:37;;;;;;;0.20;0.20;;;;;;;;;;6251198;28;20097;-76
2024/01/23 10:02:42;;;;;;;0.20;0.20;;;;;;;;;;6241877;28;20026;-76
2024/01/23 10:05:42;;;;;;;0.20;0.20;;;;;;;;;;6229619;28;20014;-76
2024/01/23 10:08:42;;;;;;;0.20;0.20;;;;;;;;;;6227107;28;20159;-76
2024/01/23 10:11:43;;;;;;;0.20;0.20;;;;;;;;;;6244334;28;20087;-76
2024/01/23 10:14:46;;;;;;;0.10;0.10;;;;;;;;;;6237085;28;20079;-76
2024/01/23 10:17:47;;;;;;;0.20;0.20;;;;;;;;;;6229437;28;20460;-76
2024/01/23 10:20:47;;;;;;;0.20;0.20;;;;;;;;;;6243521;28;20085;-76
2024/01/23 10:23:48;;;;;;;0.20;0.20;;;;;;;;;;6237454;28;20039;-76
2024/01/23 10:26:48;;;;;;;0.17;0.17;;;;;;;;;;6242498;28;20215;-76
2024/01/23 10:29:50;;;;;;;0.20;0.20;;;;;;;;;;6238957;28;20494;-76
2024/01/23 10:32:50;;;;;;;0.20;0.20;;;;;;;;;;6243745;28;20032;-77
2024/01/23 10:35:51;;;;;;;0.20;0.20;;;;;;;;;;6236944;28;20034;-77
2024/01/23 10:38:52;;;;;;;0.20;0.20;;;;;;;;;;6243818;28;20468;-78
2024/01/23 10:41:52;;;;;;;0.20;0.20;;;;;;;;;;6242911;28;20025;-77
2024/01/23 10:44:53;;;;;;;0.20;0.20;;;;;;;;;;6244832;28;20058;-78
2024/01/23 10:47:56;;;;;;;0.10;0.10;;;;;;;;;;6243710;28;20411;-78
2024/01/23 10:51:16;;;;;;;0.20;0.20;;;;;;;;;;6254376;28;20025;-78
2024/01/23 10:54:25;;;;;;;0.20;0.20;;;;;;;;;;6242371;28;20037;-79
2024/01/23 10:57:25;;;;;;;0.20;0.20;;;;;;;;;;6241951;28;20044;-79
2024/01/23 11:00:26;;;;;;;0.20;0.20;;;;;;;;;;6228387;28;20520;-79
2024/01/23 11:03:26;;;;;;;0.20;0.20;;;;;;;;;;6243095;28;20018;-79
2024/01/23 11:06:29;;;;;;;0.20;0.20;;;;;;;;;;6243571;28;20456;-79
2024/01/23 11:09:34;;;;;;;0.20;0.20;;;;;;;;;;6225135;28;20021;-80
2024/01/23 11:12:39;;;;;;;0.20;0.20;;;;;;;;;;6235353;28;20021;-80
2024/01/23 11:15:40;;;;;;;0.20;0.20;;;;;;;;;;6242925;28;20487;-80
2024/01/23 11:18:41;;;;;;;0.20;0.20;;;;;;;;;;6238409;28;20025;-80
2024/01/23 11:21:41;;;;;;;0.20;0.20;;;;;;;;;;6245341;28;20028;-81
2024/01/23 11:24:43;;;;;;;0.10;0.10;;;;;;;;;;6236346;28;20020;-80
2024/01/23 11:27:47;;;;;;;0.20;0.20;;;;;;;;;;6243090;28;20018;-80
2024/01/23 11:31:05;;;;;;;0.20;0.20;;;;;;;;;;6231775;28;20419;-80
2024/01/23 11:34:23;;;;;;;0.20;0.20;;;;;;;;;;6235453;28;20028;-81
2024/01/23 11:37:36;;;;;;;0.20;0.20;;;;;;;;;;6234827;28;20032;-78
2024/01/23 11:40:38;;;;;;;0.13;0.13;;;;;;;;;;6220601;28;20041;-78
2024/01/23 11:43:38;;;;;;;0.20;0.20;;;;;;;;;;6242163;28;20025;-78
2024/01/23 11:46:38;;;;;;;0.10;0.10;;;;;;;;;;6223846;28;20132;-77
2024/01/23 11:49:38;;;;;;;0.20;0.20;;;;;;;;;;6223509;28;20482;-78
2024/01/23 11:52:40;;;;;;;0.10;0.10;;;;;;;;;;6232114;28;20494;-78
2024/01/23 11:55:41;;;;;;;;;;;;;;;;;;6233688;28;20026;-79
2024/01/23 11:58:43;;;;;;;0.20;0.20;;;;;;;;;;6235078;28;20508;-78
2024/01/23 12:01:43;;;;;;;0.10;0.10;;;;;;;;;;6236281;28;20021;-79
2024/01/23 12:04:44;;;;;;;0.20;0.20;;;;;;;;;;6224708;28;20020;-79
2024/01/23 12:07:44;;;;;;;0.20;0.20;;;;;;;;;;6242023;28;20103;-79
2024/01/23 12:10:45;;;;;;;0.20;0.20;;;;;;;;;;6230606;28;20021;-79
2024/01/23 12:13:46;;;;;;;0.10;0.10;;;;;;;;;;6232478;28;20068;-80
2024/01/23 12:16:46;;;;;;;0.20;0.20;;;;;;;;;;6241592;28;20507;-81
2024/01/23 12:19:47;;;;;;;0.10;0.10;;;;;;;;;;6219966;28;20100;-81
2024/01/23 12:22:47;;;;;;;0.10;0.10;;;;;;;;;;6232531;28;20116;-82
2024/01/23 12:25:47;;;;;;;0.20;0.20;;;;;;;;;;6224097;28;20022;-83
2024/01/23 12:28:48;;;;;;;0.20;0.20;;;;;;;;;;6241209;28;20029;-82
2024/01/23 12:31:49;;;;;;;0.20;0.20;;;;;;;;;;6221417;28;20032;-83
2024/01/23 12:34:50;;;;;;;0.17;0.17;;;;;;;;;;6241898;28;20021;-86
2024/01/23 12:37:50;;;;;;;0.20;0.20;;;;;;;;;;6216260;28;20025;-86
2024/01/23 12:40:51;;;;;;;0.10;0.10;;;;;;;;;;6231045;28;20025;-83
2024/01/23 12:43:51;;;;;;;0.10;0.10;;;;;;;;;;6240859;28;20041;-80
2024/01/23 12:46:52;;;;;;;0.20;0.20;;;;;;;;;;6240734;28;20037;-78
2024/01/23 12:49:52;;;;;;;0.10;0.10;;;;;;;;;;6216556;28;20025;-78
2024/01/23 12:52:59;;;;;;;0.20;0.20;;;;;;;;;;6238882;28;20137;-77
2024/01/23 12:55:59;;;;;;;0.20;0.20;;;;;;;;;;6228083;28;20030;-77
2024/01/23 12:58:59;;;;;;;0.10;0.10;;;;;;;;;;6240720;28;20386;-77
2024/01/23 13:01:59;;;;;;;0.20;0.20;;;;;;;;;;6218875;28;20510;-76
2024/01/23 13:05:00;;;;;;;0.20;0.20;;;;;;;;;;6241147;28;20045;-77
2024/01/23 13:08:00;;;;;;;0.10;0.10;;;;;;;;;;6241797;28;20028;-78
2024/01/23 13:11:00;;;;;;;0.20;0.20;;;;;;;;;;6242989;28;20032;-78
2024/01/23 13:14:01;;;;;;;0.10;0.10;;;;;;;;;;6242735;28;20033;-79
2024/01/23 13:17:02;;;;;;;0.10;0.10;;;;;;;;;;6245512;28;20040;-80
2024/01/23 13:20:09;;;;;;;0.10;0.10;;;;;;;;;;6214895;28;20426;-79
2024/01/23 13:23:09;;;;;;;0.20;0.20;;;;;;;;;;6246020;28;20017;-80
2024/01/23 13:26:11;;;;;;;0.20;0.20;;;;;;;;;;6239688;28;20490;-80
2024/01/23 13:29:11;;;;;;;0.20;0.20;;;;;;;;;;6244231;28;20025;-81
2024/01/23 13:32:12;;;;;;;0.20;0.20;;;;;;;;;;6242797;28;20029;-81
2024/01/23 13:35:12;;;;;;;0.20;0.20;;;;;;;;;;6225971;28;20032;-81
2024/01/23 13:38:12;;;;;;;0.20;0.20;;;;;;;;;;6242730;28;20718;-80
2024/01/23 13:41:13;;;;;;;0.10;0.10;;;;;;;;;;6227393;28;20468;-80
2024/01/23 13:44:14;;;;;;;0.20;0.20;;;;;;;;;;6219050;28;20536;-81
2024/01/23 13:47:14;;;;;;;0.20;0.20;;;;;;;;;;6226589;28;20123;-81
2024/01/23 13:50:18;;;;;;;0.20;0.20;;;;;;;;;;6244825;28;20026;-82
2024/01/23 13:53:18;;;;;;;0.20;0.20;;;;;;;;;;6244951;28;20038;-82
2024/01/23 13:56:19;;;;;;;0.20;0.20;;;;;;;;;;6244492;28;20029;-82
2024/01/23 13:59:20;;;;;;;0.20;0.20;;;;;;;;;;6244799;28;20009;-81
2024/01/23 14:02:20;;;;;;;0.20;0.20;;;;;;;;;;6234419;28;20026;-81
2024/01/23 14:05:21;;;;;;;0.20;0.20;;;;;;;;;;6244875;28;20022;-88
2024/01/23 14:08:21;;;;;;;0.13;0.13;;;;;;;;;;6259260;28;20030;-88
2024/01/23 14:11:22;;;;;;;0.10;0.10;;;;;;;;;;6225855;28;20515;-87
2024/01/23 14:14:22;;;;;;;0.20;0.20;;;;;;;;;;6231616;28;20040;-87
2024/01/23 14:17:23;;;;;;;0.20;0.20;;;;;;;;;;6233689;28;20042;-85
2024/01/23 14:20:23;;;;;;;0.20;0.20;;;;;;;;;;6230232;28;20022;-83
2024/01/23 14:23:23;;;;;;;0.10;0.10;;;;;;;;;;6219042;28;20041;-82
2024/01/23 14:26:25;;;;;;;0.20;0.20;;;;;;;;;;6224921;28;20460;-79
2024/01/23 14:29:25;;;;;;;0.20;0.20;;;;;;;;;;6232395;28;20033;-79
2024/01/23 14:32:26;;;;;;;0.20;0.20;;;;;;;;;;6235273;28;20092;-77
2024/01/23 14:35:26;;;;;;;0.20;0.20;;;;;;;;;;6225289;28;20055;-77
2024/01/23 14:38:27;;;;;;;0.20;0.20;;;;;;;;;;6224154;28;20452;-78
2024/01/23 14:41:28;;;;;;;0.20;0.20;;;;;;;;;;6239792;28;20243;-77
2024/01/23 14:44:28;;;;;;;0.20;0.20;;;;;;;;;;6240015;28;20052;-78
2024/01/23 14:47:30;;;;;;;0.20;0.20;;;;;;;;;;6242890;28;20060;-78
2024/01/23 14:50:31;;;;;;;0.20;0.20;;;;;;;;;;6225508;28;20033;-76
2024/01/23 14:53:31;;;;;;;0.20;0.20;;;;;;;;;;6241864;28;20021;-77
2024/01/23 14:56:31;;;;;;;0.10;0.10;;;;;;;;;;6240954;28;20071;-77
2024/01/23 14:59:31;;;;;;;0.20;0.20;;;;;;;;;;6238485;28;20487;-77
2024/01/23 15:02:32;;;;;;;0.20;0.20;;;;;;;;;;6242695;28;20604;-78
2024/01/23 15:05:32;;;;;;;0.20;0.20;;;;;;;;;;6230312;28;20026;-78
2024/01/23 15:08:32;;;;;;;0.20;0.20;;;;;;;;;;6240981;28;20041;-78
2024/01/23 15:11:32;;;;;;;0.20;0.20;;;;;;;;;;6242933;28;20029;-79
2024/01/23 15:14:33;;;;;;;0.20;0.20;;;;;;;;;;6232759;28;20034;-79
2024/01/23 15:17:33;;;;;;;0.20;0.20;;;;;;;;;;6228103;28;20046;-88
2024/01/23 15:20:33;;;;;;;0.20;0.20;;;;;;;;;;6222028;28;20476;-89
2024/01/23 15:23:35;;;;;;;0.20;0.20;;;;;;;;;;6240498;28;20071;-88
2024/01/23 15:26:36;;;;;;;0.20;0.20;;;;;;;;;;6236987;28;20033;-88
2024/01/23 15:29:36;;;;;;;0.20;0.20;;;;;;;;;;6248289;28;20029;-88
2024/01/23 15:32:36;;;;;;;0.20;0.20;;;;;;;;;;6235914;28;20076;-88
2024/01/23 15:35:37;;;;;;;0.20;0.20;;;;;;;;;;6241058;28;20566;-88
2024/01/23 15:38:39;;;;;;;0.20;0.20;;;;;;;;;;6239716;28;20392;-88
2024/01/23 15:41:40;;;;;;;0.20;0.20;;;;;;;;;;6215140;28;20025;-90
2024/01/23 15:44:41;;;;;;;0.20;0.20;;;;;;;;;;6238570;28;20076;-91
2024/01/23 15:47:41;;;;;;;0.20;0.20;;;;;;;;;;6249819;28;20045;-90
2024/01/23 15:50:47;;;;;;;0.20;0.20;;;;;;;;;;6219801;28;20141;-90
2024/01/23 15:53:49;;;;;;;0.20;0.20;;;;;;;;;;6229664;28;20028;-88
2024/01/23 15:56:49;;;;;;;0.20;0.20;;;;;;;;;;6242107;28;20547;-88
2024/01/23 15:59:49;;;;;;;0.20;0.20;;;;;;;;;;6245364;28;20013;-88
2024/01/23 16:02:49;;;;;;;0.20;0.20;;;;;;;;;;6235655;28;20104;-88
2024/01/23 16:05:50;;;;;;;0.20;0.20;;;;;;;;;;6249512;28;20032;-87
2024/01/23 16:08:50;;;;;;;0.20;0.20;;;;;;;;;;6241497;28;20053;-87
2024/01/23 16:11:50;;;;;;;0.20;0.20;;;;;;;;;;6240094;28;20053;-87
2024/01/23 16:14:50;;;;;;;0.20;0.20;;;;;;;;;;6240788;28;20028;-86
2024/01/23 16:17:52;;;;;;;0.20;0.20;;;;;;;;;;6240554;28;20488;-86
2024/01/23 16:20:52;;;;;;;0.20;0.20;;;;;;;;;;6240616;28;20028;-84
2024/01/23 16:23:53;;;;;;;0.20;0.20;;;;;;;;;;6241129;28;20026;-82
2024/01/23 16:26:55;;;;;;;0.20;0.20;;;;;;;;;;6240522;28;20109;-82
2024/01/23 16:29:55;;;;;;;0.20;0.20;;;;;;;;;;6239687;28;20032;-82
2024/01/23 16:32:55;;;;;;;0.20;0.20;;;;;;;;;;6221269;28;20034;-83
2024/01/23 16:35:55;;;;;;;0.20;0.20;;;;;;;;;;6239186;28;20032;-84
2024/01/23 16:38:56;;;;;;;0.20;0.20;;;;;;;;;;6241741;28;20030;-84
2024/01/23 16:41:56;;;;;;;0.20;0.20;;;;;;;;;;6243872;28;20032;-85
2024/01/23 16:44:57;;;;;;;0.20;0.20;;;;;;;;;;6215793;28;20049;-85
2024/01/23 16:47:57;;;;;;;0.20;0.20;;;;;;;;;;6244978;28;20068;-78
2024/01/23 16:50:57;;;;;;;0.20;0.20;;;;;;;;;;6245587;28;20476;-76
2024/01/23 16:53:58;;;;;;;0.20;0.20;;;;;;;;;;6233847;28;20040;-77
2024/01/23 16:56:58;;;;;;;0.20;0.20;;;;;;;;;;6231186;28;20037;-77
2024/01/23 16:59:58;;;;;;;0.20;0.20;;;;;;;;;;6217240;28;20029;-78
2024/01/23 17:02:58;;;;;;;0.20;0.20;;;;;;;;;;6238986;28;20022;-77
2024/01/23 17:06:00;;;;;;;0.20;0.20;;;;;;;;;;6231348;28;20025;-78
2024/01/23 17:09:01;;;;;;;0.20;0.20;;;;;;;;;;6225458;28;20033;-77
2024/01/23 17:12:01;;;;;;;0.20;0.20;;;;;;;;;;6245877;28;20093;-79
2024/01/23 17:15:01;;;;;;;0.20;0.20;;;;;;;;;;6245193;28;20032;-79
2024/01/23 17:18:03;;;;;;;0.20;0.20;;;;;;;;;;6244812;28;20013;-79
2024/01/23 17:21:04;;;;;;;0.20;0.20;;;;;;;;;;6244859;28;20423;-79
2024/01/23 17:24:04;;;;;;;0.20;0.20;;;;;;;;;;6227564;28;20024;-79
2024/01/23 17:27:04;;;;;;;0.20;0.20;;;;;;;;;;6243569;28;20064;-79
2024/01/23 17:30:05;;;;;;;0.20;0.20;;;;;;;;;;6242036;28;20025;-78
2024/01/23 17:33:05;;;;;;;0.20;0.20;;;;;;;;;;6229492;28;20052;-78
2024/01/23 17:36:05;;;;;;;0.20;0.20;;;;;;;;;;6243645;28;20036;-85
2024/01/23 17:39:06;;;;;;;0.20;0.20;;;;;;;;;;6221893;28;20108;-85
2024/01/23 17:42:08;;;;;;;0.10;0.10;;;;;;;;;;6243659;28;20040;-85
2024/01/23 17:45:10;;;;;;;;;;;;;;;;;;6226583;28;20232;-85
2024/01/23 17:48:12;;;;;;;0.20;0.20;;;;;;;;;;6242765;28;19917;-86
2024/01/23 17:51:12;;;;;;;0.20;0.20;;;;;;;;;;6243893;28;20028;-86
2024/01/23 17:54:13;;;;;;;0.20;0.20;;;;;;;;;;6241828;28;20061;-86
2024/01/23 17:57:13;;;;;;;0.20;0.20;;;;;;;;;;6234244;28;20121;-79
2024/01/23 18:00:14;;;;;;;0.20;0.20;;;;;;;;;;6244479;28;20083;-78
2024/01/23 18:03:15;;;;;;;0.20;0.20;;;;;;;;;;6231977;28;20018;-78